sensor_id;sensor_type;location;lat;lon;timestamp;pressure;altitude;pressure_sealevel;temperature;humidity
34124;BME280;13153;52.316;21.166;2023-02-12T00:02:19;101626.88;;;6.52;53.21
34124;BME280;13153;52.316;21.166;2023-02-12T00:04:46;101633.31;;;6.44;53.46
34124;BME280;13153;52.316;21.166;2023-02-12T00:07:12;101635.13;;;6.45;53.91
34124;BME280;13153;52.316;21.166;2023-02-12T00:09:38;101641.69;;;6.39;54.04
34124;BME280;13153;52.316;21.166;2023-02-12T00:12:04;101653.22;;;6.42;54.27
34124;BME280;13153;52.316;21.166;2023-02-12T00:14:30;101659.78;;;6.36;53.82
34124;BME280;13153;52.316;21.166;2023-02-12T00:16:56;101668.09;;;6.43;54.29
34124;BME280;13153;52.316;21.166;2023-02-12T00:19:21;101678.06;;;6.49;53.90
34124;BME280;13153;52.316;21.166;2023-02-12T00:21:47;101678.25;;;6.52;54.01
34124;BME280;13153;52.316;21.166;2023-02-12T00:24:13;101685.28;;;6.53;54.08
34124;BME280;13153;52.316;21.166;2023-02-12T00:26:39;101690.81;;;6.57;54.18
34124;BME280;13153;52.316;21.166;2023-02-12T00:29:05;101684.88;;;6.60;54.21
34124;BME280;13153;52.316;21.166;2023-02-12T00:31:31;101679.94;;;6.65;54.00
34124;BME280;13153;52.316;21.166;2023-02-12T00:33:58;101694.22;;;6.70;53.62
34124;BME280;13153;52.316;21.166;2023-02-12T00:36:27;101692.59;;;6.72;53.51
34124;BME280;13153;52.316;21.166;2023-02-12T00:38:55;101692.41;;;6.69;53.11
34124;BME280;13153;52.316;21.166;2023-02-12T00:41:22;101692.44;;;6.55;53.33
34124;BME280;13153;52.316;21.166;2023-02-12T00:43:49;101690.91;;;6.59;52.68
34124;BME280;13153;52.316;21.166;2023-02-12T00:46:15;101696.13;;;6.59;52.17
34124;BME280;13153;52.316;21.166;2023-02-12T00:48:41;101705.19;;;6.51;52.09
34124;BME280;13153;52.316;21.166;2023-02-12T00:51:07;101697.88;;;6.45;52.40
34124;BME280;13153;52.316;21.166;2023-02-12T00:53:33;101701.88;;;6.53;52.28
34124;BME280;13153;52.316;21.166;2023-02-12T00:56:00;101715.75;;;6.52;52.08
34124;BME280;13153;52.316;21.166;2023-02-12T00:58:26;101707.91;;;6.52;52.55
34124;BME280;13153;52.316;21.166;2023-02-12T01:00:54;101712.03;;;6.49;51.96
34124;BME280;13153;52.316;21.166;2023-02-12T01:03:21;101720.38;;;6.56;52.03
34124;BME280;13153;52.316;21.166;2023-02-12T01:05:46;101723.59;;;6.52;51.95
34124;BME280;13153;52.316;21.166;2023-02-12T01:08:14;101718.66;;;6.57;51.93
34124;BME280;13153;52.316;21.166;2023-02-12T01:10:42;101719.88;;;6.62;52.12
34124;BME280;13153;52.316;21.166;2023-02-12T01:13:12;101725.19;;;6.63;51.82
34124;BME280;13153;52.316;21.166;2023-02-12T01:15:39;101730.53;;;6.65;52.36
34124;BME280;13153;52.316;21.166;2023-02-12T01:18:05;101742.91;;;6.68;51.90
34124;BME280;13153;52.316;21.166;2023-02-12T01:20:31;101741.78;;;6.64;52.02
34124;BME280;13153;52.316;21.166;2023-02-12T01:22:57;101754.38;;;6.70;52.35
34124;BME280;13153;52.316;21.166;2023-02-12T01:25:22;101754.06;;;6.65;51.57
34124;BME280;13153;52.316;21.166;2023-02-12T01:27:52;101754.66;;;6.61;51.54
34124;BME280;13153;52.316;21.166;2023-02-12T01:30:18;101757.38;;;6.62;51.30
34124;BME280;13153;52.316;21.166;2023-02-12T01:32:46;101755.69;;;6.63;51.50
34124;BME280;13153;52.316;21.166;2023-02-12T01:35:12;101768.84;;;6.65;51.08
34124;BME280;13153;52.316;21.166;2023-02-12T01:37:38;101755.59;;;6.61;51.24
34124;BME280;13153;52.316;21.166;2023-02-12T01:40:06;101767.84;;;6.62;51.07
34124;BME280;13153;52.316;21.166;2023-02-12T01:42:32;101776.50;;;6.61;50.38
34124;BME280;13153;52.316;21.166;2023-02-12T01:47:44;101778.00;;;6.58;50.59
34124;BME280;13153;52.316;21.166;2023-02-12T01:50:18;101773.78;;;6.47;50.24
34124;BME280;13153;52.316;21.166;2023-02-12T01:52:52;101777.81;;;6.42;50.47
34124;BME280;13153;52.316;21.166;2023-02-12T01:55:20;101788.19;;;6.40;50.31
34124;BME280;13153;52.316;21.166;2023-02-12T01:57:48;101780.44;;;6.42;50.34
34124;BME280;13153;52.316;21.166;2023-02-12T02:03:04;101791.78;;;6.42;49.92
34124;BME280;13153;52.316;21.166;2023-02-12T02:05:42;101786.88;;;6.47;49.88
34124;BME280;13153;52.316;21.166;2023-02-12T02:08:09;101796.13;;;6.55;50.69
34124;BME280;13153;52.316;21.166;2023-02-12T02:10:35;101806.88;;;6.59;50.19
34124;BME280;13153;52.316;21.166;2023-02-12T02:13:02;101807.19;;;6.64;50.43
34124;BME280;13153;52.316;21.166;2023-02-12T02:15:48;101824.88;;;6.68;49.34
34124;BME280;13153;52.316;21.166;2023-02-12T02:18:46;101830.22;;;6.70;49.74
34124;BME280;13153;52.316;21.166;2023-02-12T02:21:45;101822.06;;;6.65;49.63
34124;BME280;13153;52.316;21.166;2023-02-12T02:30:15;101848.09;;;6.24;49.82
34124;BME280;13153;52.316;21.166;2023-02-12T02:33:44;101868.75;;;6.33;49.67
34124;BME280;13153;52.316;21.166;2023-02-12T02:39:27;101876.56;;;6.46;49.82
34124;BME280;13153;52.316;21.166;2023-02-12T02:42:01;101874.66;;;6.43;49.48
34124;BME280;13153;52.316;21.166;2023-02-12T02:44:51;101872.03;;;6.17;49.40
34124;BME280;13153;52.316;21.166;2023-02-12T02:47:25;101868.19;;;6.12;49.56
34124;BME280;13153;52.316;21.166;2023-02-12T02:50:01;101887.91;;;6.20;49.57
34124;BME280;13153;52.316;21.166;2023-02-12T02:52:36;101885.16;;;6.05;50.17
34124;BME280;13153;52.316;21.166;2023-02-12T02:55:07;101898.00;;;6.02;50.50
34124;BME280;13153;52.316;21.166;2023-02-12T02:57:49;101903.53;;;6.07;50.57
34124;BME280;13153;52.316;21.166;2023-02-12T03:00:22;101908.41;;;6.14;50.80
34124;BME280;13153;52.316;21.166;2023-02-12T03:02:59;101921.88;;;6.20;50.75
34124;BME280;13153;52.316;21.166;2023-02-12T03:05:34;101928.34;;;6.25;50.44
34124;BME280;13153;52.316;21.166;2023-02-12T03:08:22;101943.44;;;6.29;50.89
34124;BME280;13153;52.316;21.166;2023-02-12T03:11:19;101944.44;;;6.31;50.91
34124;BME280;13153;52.316;21.166;2023-02-12T03:14:05;101956.00;;;6.35;50.74
34124;BME280;13153;52.316;21.166;2023-02-12T03:16:58;101953.56;;;6.38;51.04
34124;BME280;13153;52.316;21.166;2023-02-12T03:19:32;101957.31;;;6.41;51.08
34124;BME280;13153;52.316;21.166;2023-02-12T03:22:07;101966.16;;;6.43;51.31
34124;BME280;13153;52.316;21.166;2023-02-12T03:24:48;101981.84;;;6.43;51.63
34124;BME280;13153;52.316;21.166;2023-02-12T03:28:16;101987.88;;;6.42;51.49
34124;BME280;13153;52.316;21.166;2023-02-12T03:31:11;101991.19;;;6.40;51.00
34124;BME280;13153;52.316;21.166;2023-02-12T03:37:04;102004.44;;;6.29;51.11
34124;BME280;13153;52.316;21.166;2023-02-12T03:43:03;102017.56;;;6.18;50.38
34124;BME280;13153;52.316;21.166;2023-02-12T03:45:50;102020.78;;;6.14;50.43
34124;BME280;13153;52.316;21.166;2023-02-12T03:48:32;102019.66;;;6.35;49.96
34124;BME280;13153;52.316;21.166;2023-02-12T03:51:28;102026.66;;;6.36;49.81
34124;BME280;13153;52.316;21.166;2023-02-12T03:53:57;102050.81;;;6.32;49.37
34124;BME280;13153;52.316;21.166;2023-02-12T03:58:57;102050.63;;;5.69;49.41
34124;BME280;13153;52.316;21.166;2023-02-12T04:01:23;102044.50;;;5.69;49.98
34124;BME280;13153;52.316;21.166;2023-02-12T04:03:49;102040.78;;;5.42;50.16
34124;BME280;13153;52.316;21.166;2023-02-12T04:06:26;102044.19;;;5.41;50.55
34124;BME280;13153;52.316;21.166;2023-02-12T04:08:57;102038.03;;;5.52;50.28
34124;BME280;13153;52.316;21.166;2023-02-12T04:12:08;102042.69;;;5.56;50.67
34124;BME280;13153;52.316;21.166;2023-02-12T04:21:04;102045.88;;;5.52;50.65
34124;BME280;13153;52.316;21.166;2023-02-12T04:24:15;102053.03;;;5.54;50.22
34124;BME280;13153;52.316;21.166;2023-02-12T04:27:14;102049.50;;;5.66;49.83
34124;BME280;13153;52.316;21.166;2023-02-12T04:30:20;102059.16;;;5.55;49.48
34124;BME280;13153;52.316;21.166;2023-02-12T04:32:58;102060.63;;;5.51;49.97
34124;BME280;13153;52.316;21.166;2023-02-12T04:36:00;102061.88;;;5.56;50.31
34124;BME280;13153;52.316;21.166;2023-02-12T04:38:40;102069.56;;;5.90;49.36
34124;BME280;13153;52.316;21.166;2023-02-12T04:41:09;102069.66;;;6.03;49.40
34124;BME280;13153;52.316;21.166;2023-02-12T04:43:36;102070.31;;;6.12;49.86
34124;BME280;13153;52.316;21.166;2023-02-12T04:46:05;102072.44;;;6.18;49.45
34124;BME280;13153;52.316;21.166;2023-02-12T04:48:32;102079.72;;;6.22;49.21
34124;BME280;13153;52.316;21.166;2023-02-12T04:51:00;102080.84;;;6.25;48.84
34124;BME280;13153;52.316;21.166;2023-02-12T04:53:26;102079.13;;;6.26;48.98
34124;BME280;13153;52.316;21.166;2023-02-12T04:55:52;102089.63;;;6.14;48.32
34124;BME280;13153;52.316;21.166;2023-02-12T04:58:17;102097.47;;;6.14;48.78
34124;BME280;13153;52.316;21.166;2023-02-12T05:00:43;102102.00;;;6.17;49.01
34124;BME280;13153;52.316;21.166;2023-02-12T05:03:09;102101.31;;;6.19;48.65
34124;BME280;13153;52.316;21.166;2023-02-12T05:05:35;102108.47;;;6.22;48.88
34124;BME280;13153;52.316;21.166;2023-02-12T05:08:01;102116.53;;;6.25;48.93
34124;BME280;13153;52.316;21.166;2023-02-12T05:10:27;102113.34;;;6.29;48.43
34124;BME280;13153;52.316;21.166;2023-02-12T05:12:54;102115.38;;;6.33;48.35
34124;BME280;13153;52.316;21.166;2023-02-12T05:15:20;102120.50;;;6.32;48.71
34124;BME280;13153;52.316;21.166;2023-02-12T05:17:46;102128.13;;;6.28;48.38
34124;BME280;13153;52.316;21.166;2023-02-12T05:20:13;102140.06;;;6.25;48.01
34124;BME280;13153;52.316;21.166;2023-02-12T05:22:39;102137.31;;;6.23;47.99
34124;BME280;13153;52.316;21.166;2023-02-12T05:25:05;102150.41;;;6.12;47.89
34124;BME280;13153;52.316;21.166;2023-02-12T05:27:31;102144.75;;;6.06;48.15
34124;BME280;13153;52.316;21.166;2023-02-12T05:29:57;102147.34;;;6.06;47.72
34124;BME280;13153;52.316;21.166;2023-02-12T05:32:23;102157.81;;;6.06;48.18
34124;BME280;13153;52.316;21.166;2023-02-12T05:34:49;102162.13;;;5.93;47.63
34124;BME280;13153;52.316;21.166;2023-02-12T05:37:15;102163.16;;;5.95;48.06
34124;BME280;13153;52.316;21.166;2023-02-12T05:39:41;102161.69;;;5.99;47.91
34124;BME280;13153;52.316;21.166;2023-02-12T05:42:06;102160.88;;;6.00;47.92
34124;BME280;13153;52.316;21.166;2023-02-12T05:44:32;102169.63;;;6.01;47.41
34124;BME280;13153;52.316;21.166;2023-02-12T05:46:58;102171.66;;;6.05;47.79
34124;BME280;13153;52.316;21.166;2023-02-12T05:49:24;102182.13;;;6.05;48.01
34124;BME280;13153;52.316;21.166;2023-02-12T05:51:49;102180.53;;;6.07;48.08
34124;BME280;13153;52.316;21.166;2023-02-12T05:54:15;102184.75;;;6.05;47.97
34124;BME280;13153;52.316;21.166;2023-02-12T05:56:46;102193.38;;;6.04;47.57
34124;BME280;13153;52.316;21.166;2023-02-12T05:59:20;102194.38;;;6.06;47.74
34124;BME280;13153;52.316;21.166;2023-02-12T06:01:47;102191.88;;;6.07;47.70
34124;BME280;13153;52.316;21.166;2023-02-12T06:04:25;102206.09;;;6.11;48.08
34124;BME280;13153;52.316;21.166;2023-02-12T06:06:52;102203.38;;;6.09;48.46
34124;BME280;13153;52.316;21.166;2023-02-12T06:09:18;102207.56;;;6.07;48.27
34124;BME280;13153;52.316;21.166;2023-02-12T06:11:44;102204.28;;;6.10;47.75
34124;BME280;13153;52.316;21.166;2023-02-12T06:14:14;102212.22;;;6.11;48.38
34124;BME280;13153;52.316;21.166;2023-02-12T06:16:44;102216.44;;;6.09;48.43
34124;BME280;13153;52.316;21.166;2023-02-12T06:19:11;102220.75;;;6.09;48.63
34124;BME280;13153;52.316;21.166;2023-02-12T06:21:37;102239.63;;;6.16;49.10
34124;BME280;13153;52.316;21.166;2023-02-12T06:24:03;102245.88;;;6.18;48.30
34124;BME280;13153;52.316;21.166;2023-02-12T06:26:29;102247.00;;;6.22;48.17
34124;BME280;13153;52.316;21.166;2023-02-12T06:28:55;102244.50;;;6.23;48.20
34124;BME280;13153;52.316;21.166;2023-02-12T06:31:28;102248.25;;;6.27;47.94
34124;BME280;13153;52.316;21.166;2023-02-12T06:34:00;102250.19;;;6.29;48.58
34124;BME280;13153;52.316;21.166;2023-02-12T06:36:26;102250.19;;;6.29;48.67
34124;BME280;13153;52.316;21.166;2023-02-12T06:38:53;102247.00;;;6.34;48.96
34124;BME280;13153;52.316;21.166;2023-02-12T06:41:20;102252.97;;;6.44;48.74
34124;BME280;13153;52.316;21.166;2023-02-12T06:43:46;102249.00;;;6.49;48.40
34124;BME280;13153;52.316;21.166;2023-02-12T06:46:14;102253.97;;;6.58;48.76
34124;BME280;13153;52.316;21.166;2023-02-12T06:48:40;102247.25;;;6.61;48.25
34124;BME280;13153;52.316;21.166;2023-02-12T06:51:16;102247.03;;;6.58;48.31
34124;BME280;13153;52.316;21.166;2023-02-12T06:53:43;102261.25;;;6.62;48.61
34124;BME280;13153;52.316;21.166;2023-02-12T06:56:11;102258.03;;;6.78;48.81
34124;BME280;13153;52.316;21.166;2023-02-12T06:58:45;102262.22;;;7.12;48.72
34124;BME280;13153;52.316;21.166;2023-02-12T07:01:21;102268.00;;;7.58;48.19
34124;BME280;13153;52.316;21.166;2023-02-12T07:03:51;102264.09;;;8.03;47.11
34124;BME280;13153;52.316;21.166;2023-02-12T07:06:18;102266.00;;;8.45;46.83
34124;BME280;13153;52.316;21.166;2023-02-12T07:08:44;102265.63;;;8.80;45.28
34124;BME280;13153;52.316;21.166;2023-02-12T07:11:11;102267.91;;;9.02;44.26
34124;BME280;13153;52.316;21.166;2023-02-12T07:13:37;102279.66;;;9.21;43.70
34124;BME280;13153;52.316;21.166;2023-02-12T07:16:09;102284.59;;;9.45;43.55
34124;BME280;13153;52.316;21.166;2023-02-12T07:18:36;102293.25;;;9.72;43.51
34124;BME280;13153;52.316;21.166;2023-02-12T07:21:04;102290.09;;;9.77;42.31
34124;BME280;13153;52.316;21.166;2023-02-12T07:23:32;102294.16;;;9.87;42.21
34124;BME280;13153;52.316;21.166;2023-02-12T07:26:08;102289.00;;;10.18;41.94
34124;BME280;13153;52.316;21.166;2023-02-12T07:28:35;102291.50;;;10.46;40.60
34124;BME280;13153;52.316;21.166;2023-02-12T07:31:14;102287.28;;;10.64;40.32
34124;BME280;13153;52.316;21.166;2023-02-12T07:33:42;102285.63;;;10.81;39.69
34124;BME280;13153;52.316;21.166;2023-02-12T07:36:17;102281.94;;;10.94;39.56
34124;BME280;13153;52.316;21.166;2023-02-12T07:38:44;102286.78;;;11.02;38.59
34124;BME280;13153;52.316;21.166;2023-02-12T07:43:43;102284.50;;;11.41;37.46
34124;BME280;13153;52.316;21.166;2023-02-12T07:46:19;102281.53;;;11.51;36.78
34124;BME280;13153;52.316;21.166;2023-02-12T07:48:46;102280.44;;;11.64;37.10
34124;BME280;13153;52.316;21.166;2023-02-12T07:51:15;102295.66;;;11.69;35.84
34124;BME280;13153;52.316;21.166;2023-02-12T07:53:43;102288.03;;;11.25;36.38
34124;BME280;13153;52.316;21.166;2023-02-12T07:56:15;102302.09;;;11.09;36.18
34124;BME280;13153;52.316;21.166;2023-02-12T07:58:43;102311.09;;;10.97;36.69
34124;BME280;13153;52.316;21.166;2023-02-12T08:01:34;102306.50;;;10.78;37.32
34124;BME280;13153;52.316;21.166;2023-02-12T08:04:04;102311.94;;;10.81;37.62
34124;BME280;13153;52.316;21.166;2023-02-12T08:06:33;102307.19;;;10.90;37.55
34124;BME280;13153;52.316;21.166;2023-02-12T08:09:03;102314.69;;;10.99;37.55
34124;BME280;13153;52.316;21.166;2023-02-12T08:11:31;102310.00;;;10.93;37.26
34124;BME280;13153;52.316;21.166;2023-02-12T08:13:59;102314.84;;;11.02;37.19
34124;BME280;13153;52.316;21.166;2023-02-12T08:16:27;102311.50;;;11.20;37.58
34124;BME280;13153;52.316;21.166;2023-02-12T08:18:55;102326.00;;;11.29;36.83
34124;BME280;13153;52.316;21.166;2023-02-12T08:21:25;102327.56;;;11.25;36.74
34124;BME280;13153;52.316;21.166;2023-02-12T08:23:54;102330.09;;;11.07;36.62
34124;BME280;13153;52.316;21.166;2023-02-12T08:29:19;102332.66;;;10.75;37.19
34124;BME280;13153;52.316;21.166;2023-02-12T08:31:48;102333.28;;;11.02;37.34
34124;BME280;13153;52.316;21.166;2023-02-12T08:34:20;102328.00;;;11.33;36.98
34124;BME280;13153;52.316;21.166;2023-02-12T08:36:48;102332.25;;;11.63;37.26
34124;BME280;13153;52.316;21.166;2023-02-12T08:39:16;102327.00;;;11.79;36.14
34124;BME280;13153;52.316;21.166;2023-02-12T08:41:43;102327.91;;;11.80;36.90
34124;BME280;13153;52.316;21.166;2023-02-12T08:44:11;102328.16;;;11.84;36.24
34124;BME280;13153;52.316;21.166;2023-02-12T08:46:42;102329.88;;;11.68;35.63
34124;BME280;13153;52.316;21.166;2023-02-12T08:49:16;102324.66;;;11.69;36.75
34124;BME280;13153;52.316;21.166;2023-02-12T08:51:46;102320.13;;;11.67;36.72
34124;BME280;13153;52.316;21.166;2023-02-12T08:54:17;102310.53;;;11.83;37.04
34124;BME280;13153;52.316;21.166;2023-02-12T08:56:43;102322.94;;;12.02;36.08
34124;BME280;13153;52.316;21.166;2023-02-12T08:59:14;102322.28;;;12.24;35.96
34124;BME280;13153;52.316;21.166;2023-02-12T09:01:42;102332.84;;;12.42;35.68
34124;BME280;13153;52.316;21.166;2023-02-12T09:04:21;102329.19;;;12.56;34.89
34124;BME280;13153;52.316;21.166;2023-02-12T09:06:49;102325.56;;;12.54;35.02
34124;BME280;13153;52.316;21.166;2023-02-12T09:09:16;102324.81;;;12.56;35.60
34124;BME280;13153;52.316;21.166;2023-02-12T09:11:43;102337.72;;;12.68;35.39
34124;BME280;13153;52.316;21.166;2023-02-12T09:14:13;102328.63;;;12.81;35.65
34124;BME280;13153;52.316;21.166;2023-02-12T09:16:40;102324.38;;;12.84;34.22
34124;BME280;13153;52.316;21.166;2023-02-12T09:19:07;102338.19;;;12.79;34.70
34124;BME280;13153;52.316;21.166;2023-02-12T09:21:33;102347.66;;;12.56;35.47
34124;BME280;13153;52.316;21.166;2023-02-12T09:24:01;102346.72;;;12.38;34.78
34124;BME280;13153;52.316;21.166;2023-02-12T09:26:28;102346.22;;;12.45;35.82
34124;BME280;13153;52.316;21.166;2023-02-12T09:28:54;102344.50;;;12.63;35.96
34124;BME280;13153;52.316;21.166;2023-02-12T09:31:25;102349.25;;;12.70;34.90
34124;BME280;13153;52.316;21.166;2023-02-12T09:33:56;102363.13;;;12.84;35.15
34124;BME280;13153;52.316;21.166;2023-02-12T09:36:22;102361.00;;;12.95;33.97
34124;BME280;13153;52.316;21.166;2023-02-12T09:38:48;102367.25;;;12.97;34.09
34124;BME280;13153;52.316;21.166;2023-02-12T09:47:35;102358.44;;;12.43;33.97
34124;BME280;13153;52.316;21.166;2023-02-12T09:52:55;102362.38;;;12.51;35.68
34124;BME280;13153;52.316;21.166;2023-02-12T09:55:29;102367.75;;;12.70;38.21
34124;BME280;13153;52.316;21.166;2023-02-12T09:57:56;102361.28;;;12.83;35.99
34124;BME280;13153;52.316;21.166;2023-02-12T10:00:31;102374.28;;;12.96;34.16
34124;BME280;13153;52.316;21.166;2023-02-12T10:03:03;102361.66;;;13.08;34.28
34124;BME280;13153;52.316;21.166;2023-02-12T10:05:42;102362.06;;;13.16;34.20
34124;BME280;13153;52.316;21.166;2023-02-12T10:25:49;102363.72;;;12.78;34.45
34124;BME280;13153;52.316;21.166;2023-02-12T10:28:34;102362.81;;;12.78;34.73
34124;BME280;13153;52.316;21.166;2023-02-12T10:31:29;102357.69;;;12.81;34.24
34124;BME280;13153;52.316;21.166;2023-02-12T10:33:56;102364.78;;;12.82;35.03
34124;BME280;13153;52.316;21.166;2023-02-12T10:42:00;102351.41;;;12.79;35.67
34124;BME280;13153;52.316;21.166;2023-02-12T10:44:28;102344.63;;;12.84;35.20
34124;BME280;13153;52.316;21.166;2023-02-12T10:46:54;102353.38;;;12.83;35.57
34124;BME280;13153;52.316;21.166;2023-02-12T10:49:21;102359.03;;;12.73;35.88
34124;BME280;13153;52.316;21.166;2023-02-12T10:52:01;102359.38;;;12.61;36.06
34124;BME280;13153;52.316;21.166;2023-02-12T10:54:34;102355.88;;;12.44;36.21
34124;BME280;13153;52.316;21.166;2023-02-12T10:59:45;102361.38;;;12.49;36.75
34124;BME280;13153;52.316;21.166;2023-02-12T11:02:32;102367.88;;;12.55;35.30
34124;BME280;13153;52.316;21.166;2023-02-12T11:05:21;102361.94;;;12.60;35.15
34124;BME280;13153;52.316;21.166;2023-02-12T11:07:50;102353.06;;;12.41;36.19
34124;BME280;13153;52.316;21.166;2023-02-12T11:10:38;102367.63;;;12.33;35.49
34124;BME280;13153;52.316;21.166;2023-02-12T11:13:05;102372.75;;;12.30;35.28
34124;BME280;13153;52.316;21.166;2023-02-12T11:15:48;102365.28;;;12.39;35.84
34124;BME280;13153;52.316;21.166;2023-02-12T11:18:30;102366.22;;;12.57;36.08
34124;BME280;13153;52.316;21.166;2023-02-12T11:21:00;102358.59;;;12.64;35.24
34124;BME280;13153;52.316;21.166;2023-02-12T11:23:39;102363.19;;;12.50;35.40
34124;BME280;13153;52.316;21.166;2023-02-12T11:28:57;102367.47;;;12.30;35.22
34124;BME280;13153;52.316;21.166;2023-02-12T11:31:31;102365.34;;;12.23;36.19
34124;BME280;13153;52.316;21.166;2023-02-12T11:36:43;102355.00;;;12.10;36.67
34124;BME280;13153;52.316;21.166;2023-02-12T11:41:55;102335.66;;;11.93;36.45
34124;BME280;13153;52.316;21.166;2023-02-12T11:44:28;102339.69;;;11.86;36.89
34124;BME280;13153;52.316;21.166;2023-02-12T11:47:10;102339.69;;;11.86;37.17
34124;BME280;13153;52.316;21.166;2023-02-12T11:52:40;102341.25;;;11.83;36.71
34124;BME280;13153;52.316;21.166;2023-02-12T11:55:25;102341.09;;;11.80;37.07
34124;BME280;13153;52.316;21.166;2023-02-12T11:58:15;102339.28;;;11.79;37.70
34124;BME280;13153;52.316;21.166;2023-02-12T12:06:57;102337.19;;;11.57;37.89
34124;BME280;13153;52.316;21.166;2023-02-12T12:09:46;102339.91;;;11.58;37.86
34124;BME280;13153;52.316;21.166;2023-02-12T12:15:32;102329.28;;;11.73;38.02
34124;BME280;13153;52.316;21.166;2023-02-12T12:18:42;102316.84;;;11.71;37.67
34124;BME280;13153;52.316;21.166;2023-02-12T12:21:44;102313.31;;;11.70;37.50
34124;BME280;13153;52.316;21.166;2023-02-12T12:24:42;102310.34;;;11.64;37.67
34124;BME280;13153;52.316;21.166;2023-02-12T12:27:31;102312.81;;;11.61;37.57
34124;BME280;13153;52.316;21.166;2023-02-12T12:30:27;102313.56;;;11.58;37.89
34124;BME280;13153;52.316;21.166;2023-02-12T12:33:02;102313.38;;;11.55;37.99
34124;BME280;13153;52.316;21.166;2023-02-12T12:36:19;102310.75;;;11.55;38.40
34124;BME280;13153;52.316;21.166;2023-02-12T12:47:09;102306.16;;;11.35;37.68
34124;BME280;13153;52.316;21.166;2023-02-12T12:50:02;102314.56;;;11.28;38.29
34124;BME280;13153;52.316;21.166;2023-02-12T12:52:40;102312.31;;;11.19;38.50
34124;BME280;13153;52.316;21.166;2023-02-12T13:17:50;102280.22;;;11.10;39.26
34124;BME280;13153;52.316;21.166;2023-02-12T13:23:16;102291.06;;;10.84;39.63
34124;BME280;13153;52.316;21.166;2023-02-12T13:28:54;102288.56;;;10.71;39.44
34124;BME280;13153;52.316;21.166;2023-02-12T13:31:25;102281.13;;;10.64;39.74
34124;BME280;13153;52.316;21.166;2023-02-12T13:33:59;102282.25;;;10.52;39.50
34124;BME280;13153;52.316;21.166;2023-02-12T13:36:26;102290.59;;;10.45;39.83
34124;BME280;13153;52.316;21.166;2023-02-12T13:39:21;102286.28;;;10.16;39.59
34124;BME280;13153;52.316;21.166;2023-02-12T13:53:24;102298.44;;;10.14;41.29
34124;BME280;13153;52.316;21.166;2023-02-12T13:56:28;102291.53;;;10.16;41.46
34124;BME280;13153;52.316;21.166;2023-02-12T13:58:59;102285.91;;;10.10;42.05
34124;BME280;13153;52.316;21.166;2023-02-12T14:01:54;102288.53;;;10.10;42.40
34124;BME280;13153;52.316;21.166;2023-02-12T14:04:42;102295.53;;;10.10;41.99
34124;BME280;13153;52.316;21.166;2023-02-12T14:07:13;102286.72;;;10.09;42.10
34124;BME280;13153;52.316;21.166;2023-02-12T14:10:02;102294.53;;;10.08;42.94
34124;BME280;13153;52.316;21.166;2023-02-12T14:12:37;102287.53;;;10.08;42.73
34124;BME280;13153;52.316;21.166;2023-02-12T14:15:20;102291.72;;;10.05;43.30
34124;BME280;13153;52.316;21.166;2023-02-12T14:20:33;102294.53;;;10.08;42.92
34124;BME280;13153;52.316;21.166;2023-02-12T14:36:40;102281.31;;;9.77;43.59
34124;BME280;13153;52.316;21.166;2023-02-12T14:41:48;102285.09;;;9.67;43.40
34124;BME280;13153;52.316;21.166;2023-02-12T14:46:57;102279.28;;;9.58;44.04
34124;BME280;13153;52.316;21.166;2023-02-12T14:49:53;102282.06;;;9.46;45.91
34124;BME280;13153;52.316;21.166;2023-02-12T14:52:27;102288.03;;;9.44;44.33
34124;BME280;13153;52.316;21.166;2023-02-12T14:55:18;102293.91;;;9.40;44.51
34124;BME280;13153;52.316;21.166;2023-02-12T14:57:46;102293.53;;;9.34;44.61
34124;BME280;13153;52.316;21.166;2023-02-12T15:00:32;102290.91;;;9.34;44.55
34124;BME280;13153;52.316;21.166;2023-02-12T15:05:44;102298.22;;;9.24;44.14
34124;BME280;13153;52.316;21.166;2023-02-12T15:08:27;102297.97;;;9.20;44.55
34124;BME280;13153;52.316;21.166;2023-02-12T15:14:10;102298.28;;;9.11;44.75
34124;BME280;13153;52.316;21.166;2023-02-12T15:17:04;102304.06;;;9.06;45.72
34124;BME280;13153;52.316;21.166;2023-02-12T15:20:03;102297.69;;;9.02;46.14
34124;BME280;13153;52.316;21.166;2023-02-12T15:22:38;102305.19;;;8.96;45.97
34124;BME280;13153;52.316;21.166;2023-02-12T15:27:50;102302.78;;;8.86;46.20
34124;BME280;13153;52.316;21.166;2023-02-12T15:30:23;102309.34;;;8.79;46.55
34124;BME280;13153;52.316;21.166;2023-02-12T15:32:51;102310.78;;;8.74;46.63
34124;BME280;13153;52.316;21.166;2023-02-12T15:35:30;102308.56;;;8.67;46.75
34124;BME280;13153;52.316;21.166;2023-02-12T15:37:58;102306.56;;;8.63;47.48
34124;BME280;13153;52.316;21.166;2023-02-12T15:40:30;102318.59;;;8.59;47.23
34124;BME280;13153;52.316;21.166;2023-02-12T15:43:01;102318.38;;;8.56;46.69
34124;BME280;13153;52.316;21.166;2023-02-12T15:45:31;102317.28;;;8.53;46.36
34124;BME280;13153;52.316;21.166;2023-02-12T15:48:12;102328.06;;;8.44;47.10
34124;BME280;13153;52.316;21.166;2023-02-12T15:53:28;102322.09;;;8.34;47.44
34124;BME280;13153;52.316;21.166;2023-02-12T15:55:59;102316.63;;;8.31;48.12
34124;BME280;13153;52.316;21.166;2023-02-12T15:58:48;102320.06;;;8.29;47.80
34124;BME280;13153;52.316;21.166;2023-02-12T16:01:32;102318.94;;;8.26;48.05
34124;BME280;13153;52.316;21.166;2023-02-12T16:04:07;102324.69;;;8.20;47.63
34124;BME280;13153;52.316;21.166;2023-02-12T16:06:35;102329.72;;;8.17;47.79
34124;BME280;13153;52.316;21.166;2023-02-12T16:09:15;102321.44;;;8.11;48.22
34124;BME280;13153;52.316;21.166;2023-02-12T16:11:45;102327.69;;;8.13;48.90